Terminal Aerodrome Forecast
Issued by NWS

Home | Current Version | Previous Version | Text Only | Print | Product List | Glossary On
Versions: 1 2 3 4 5 6 7 8 9 10 11 12 13 14 15 16 17
000
FTUS42 KTBW 202341
TAFLAL
TAF
KLAL 202341Z 2100/2124 07012G18KT P6SM SCT040 SCT250
     FM210400 05006KT P6SM FEW250
     FM211500 08013G20KT P6SM SCT040 BKN250
      AMD NOT SKED 2102/2111=

USA.gov is the U.S. government's official web portal to all federal, state and local government web resources and services.